Wetterdaten: Woche 07.07.14 - 13.07.14 (KW28)
Datum Zeit Temperatur Luftfeuchte Luftdruck Niederschlag Windrichtung Sonnenschein Solar Wind
07.07.2014 00:00 17,0 C 92 % 1011,7 hPa 0,2 l/m W 0,00 h 0 W/m 4,5 km/h (1 Bft)
07.07.2014 01:00 16,5 C 94 % 1012,0 hPa 0,0 l/m W 0,00 h 0 W/m 1,7 km/h (1 Bft)
07.07.2014 02:00 16,1 C 96 % 1012,3 hPa 0,0 l/m S-SW 0,00 h 0 W/m 10,8 km/h (2 Bft)
07.07.2014 03:00 15,9 C 96 % 1012,6 hPa 0,0 l/m SW 0,00 h 0 W/m 11,3 km/h (2 Bft)
07.07.2014 04:00 15,8 C 96 % 1012,6 hPa 0,0 l/m SW 0,00 h 0 W/m 10,8 km/h (2 Bft)
07.07.2014 05:00 15,8 C 95 % 1012,6 hPa 0,0 l/m SW 0,00 h 6 W/m 6,2 km/h (2 Bft)
07.07.2014 06:00 16,0 C 94 % 1012,7 hPa 0,0 l/m SW 0,00 h 14 W/m 1,7 km/h (1 Bft)
07.07.2014 07:00 16,2 C 95 % 1013,0 hPa 0,0 l/m SW 0,00 h 48 W/m 1,3 km/h (1 Bft)
07.07.2014 08:00 16,8 C 93 % 1013,3 hPa 0,0 l/m N 0,00 h 130 W/m 1,1 km/h (0 Bft)
07.07.2014 09:00 18,5 C 85 % 1013,2 hPa 0,0 l/m W-SW 0,33 h 360 W/m 6,7 km/h (2 Bft)
07.07.2014 10:00 20,8 C 73 % 1012,8 hPa 0,0 l/m O-SO 0,83 h 611 W/m 7,9 km/h (2 Bft)
07.07.2014 11:00 21,4 C 70 % 1012,6 hPa 0,0 l/m N-NO 0,42 h 492 W/m 11,3 km/h (2 Bft)
07.07.2014 12:00 21,8 C 68 % 1012,5 hPa 0,0 l/m NO 0,67 h 639 W/m 11,4 km/h (2 Bft)
07.07.2014 13:00 23,1 C 62 % 1012,0 hPa 0,0 l/m NO 0,42 h 527 W/m 14,0 km/h (3 Bft)
07.07.2014 14:00 23,0 C 64 % 1011,2 hPa 0,0 l/m NO 0,25 h 458 W/m 14,1 km/h (3 Bft)
07.07.2014 15:00 23,5 C 63 % 1010,4 hPa 0,0 l/m NO 0,42 h 517 W/m 17,8 km/h (3 Bft)
07.07.2014 16:00 23,0 C 67 % 1009,9 hPa 0,0 l/m NO 0,17 h 251 W/m 18,0 km/h (3 Bft)
07.07.2014 17:00 22,4 C 70 % 1009,3 hPa 0,0 l/m O-NO 0,00 h 217 W/m 16,1 km/h (3 Bft)
07.07.2014 18:00 22,5 C 72 % 1009,0 hPa 0,0 l/m NO 0,42 h 245 W/m 16,4 km/h (3 Bft)
07.07.2014 19:00 22,3 C 74 % 1008,4 hPa 0,0 l/m NO 0,00 h 94 W/m 13,6 km/h (3 Bft)
07.07.2014 20:00 21,1 C 77 % 1007,9 hPa 0,0 l/m N-NO 0,00 h 13 W/m 14,1 km/h (3 Bft)
07.07.2014 21:00 20,0 C 83 % 1008,2 hPa 6,0 l/m W-NW 0,00 h 0 W/m 10,2 km/h (2 Bft)
07.07.2014 22:00 17,7 C 93 % 1008,5 hPa 1,0 l/m NW 0,00 h 0 W/m 14,9 km/h (3 Bft)
07.07.2014 23:00 15,6 C 95 % 1008,7 hPa 10,2 l/m N-NW 0,00 h 0 W/m 12,3 km/h (3 Bft)
08.07.2014 00:00 15,1 C 97 % 1008,6 hPa 1,0 l/m NW 0,00 h 0 W/m 8,9 km/h (2 Bft)
08.07.2014 01:00 15,0 C 97 % 1008,2 hPa 0,8 l/m NW 0,00 h 0 W/m 2,4 km/h (1 Bft)
08.07.2014 02:00 14,9 C 98 % 1007,4 hPa 0,2 l/m SW 0,00 h 0 W/m 6,2 km/h (2 Bft)
08.07.2014 03:00 14,6 C 98 % 1007,1 hPa 0,0 l/m S-SW 0,00 h 0 W/m 8,2 km/h (2 Bft)
08.07.2014 04:00 14,4 C 98 % 1006,6 hPa 0,0 l/m SW 0,00 h 0 W/m 6,3 km/h (2 Bft)
08.07.2014 05:00 14,2 C 98 % 1006,4 hPa 0,0 l/m SW 0,00 h 9 W/m 4,5 km/h (1 Bft)
08.07.2014 06:00 14,5 C 99 % 1006,1 hPa 0,0 l/m N 0,00 h 19 W/m 1,7 km/h (1 Bft)
08.07.2014 07:00 14,9 C 99 % 1006,2 hPa 0,0 l/m SW 0,00 h 18 W/m 6,0 km/h (2 Bft)
08.07.2014 08:00 14,5 C 98 % 1006,4 hPa 1,0 l/m W 0,00 h 52 W/m 10,5 km/h (2 Bft)
08.07.2014 09:00 14,4 C 98 % 1006,4 hPa 1,0 l/m W-SW 0,00 h 72 W/m 10,9 km/h (2 Bft)
08.07.2014 10:00 14,3 C 98 % 1006,7 hPa 1,4 l/m W-SW 0,00 h 114 W/m 13,0 km/h (3 Bft)
08.07.2014 11:00 14,5 C 97 % 1007,1 hPa 0,2 l/m W-SW 0,00 h 150 W/m 15,8 km/h (3 Bft)
08.07.2014 12:00 14,5 C 96 % 1007,4 hPa 0,8 l/m W-SW 0,00 h 108 W/m 17,7 km/h (3 Bft)
08.07.2014 13:00 13,8 C 97 % 1007,7 hPa 2,0 l/m W-SW 0,00 h 79 W/m 18,8 km/h (3 Bft)
08.07.2014 14:00 13,5 C 97 % 1007,7 hPa 3,2 l/m W-SW 0,00 h 75 W/m 18,1 km/h (3 Bft)
08.07.2014 15:00 13,3 C 96 % 1007,9 hPa 1,0 l/m W 0,00 h 75 W/m 18,0 km/h (3 Bft)
08.07.2014 16:00 13,2 C 96 % 1008,2 hPa 0,2 l/m W-NW 0,00 h 91 W/m 12,3 km/h (3 Bft)
08.07.2014 17:00 13,5 C 94 % 1008,5 hPa 0,0 l/m W-NW 0,00 h 92 W/m 11,9 km/h (2 Bft)
08.07.2014 18:00 13,6 C 93 % 1008,7 hPa 0,2 l/m W-NW 0,00 h 84 W/m 10,3 km/h (2 Bft)
08.07.2014 19:00 13,4 C 93 % 1009,0 hPa 0,0 l/m W-NW 0,00 h 42 W/m 5,7 km/h (1 Bft)
08.07.2014 20:00 13,1 C 94 % 1009,2 hPa 0,0 l/m W-NW 0,00 h 14 W/m 9,5 km/h (2 Bft)
08.07.2014 21:00 12,5 C 95 % 1009,3 hPa 0,0 l/m W-SW 0,00 h 5 W/m 10,7 km/h (2 Bft)
08.07.2014 22:00 12,2 C 95 % 1009,7 hPa 0,0 l/m W-SW 0,00 h 0 W/m 17,2 km/h (3 Bft)
08.07.2014 23:00 11,8 C 95 % 1009,7 hPa 0,8 l/m W-SW 0,00 h 0 W/m 14,1 km/h (3 Bft)
09.07.2014 00:00 11,5 C 97 % 1009,5 hPa 0,4 l/m W-SW 0,00 h 0 W/m 15,7 km/h (3 Bft)
09.07.2014 01:00 11,4 C 97 % 1009,0 hPa 0,0 l/m W-SW 0,00 h 0 W/m 16,4 km/h (3 Bft)
09.07.2014 02:00 11,3 C 97 % 1008,5 hPa 0,0 l/m W 0,00 h 0 W/m 17,0 km/h (3 Bft)
09.07.2014 03:00 11,2 C 97 % 1008,3 hPa 0,0 l/m W 0,00 h 0 W/m 16,2 km/h (3 Bft)
09.07.2014 04:00 11,1 C 96 % 1008,0 hPa 0,2 l/m W 0,00 h 0 W/m 16,2 km/h (3 Bft)
09.07.2014 05:00 10,9 C 96 % 1008,1 hPa 0,0 l/m W 0,00 h 0 W/m 15,7 km/h (3 Bft)
09.07.2014 06:00 10,9 C 96 % 1008,2 hPa 0,4 l/m W 0,00 h 11 W/m 13,6 km/h (3 Bft)
09.07.2014 07:00 10,8 C 96 % 1008,2 hPa 0,4 l/m W-SW 0,00 h 35 W/m 16,2 km/h (3 Bft)
09.07.2014 08:00 10,8 C 96 % 1008,3 hPa 0,4 l/m W-SW 0,00 h 58 W/m 14,9 km/h (3 Bft)
09.07.2014 09:00 11,1 C 96 % 1008,5 hPa 0,8 l/m W 0,00 h 78 W/m 13,2 km/h (3 Bft)
09.07.2014 10:00 11,3 C 97 % 1008,6 hPa 0,8 l/m W-SW 0,00 h 110 W/m 13,8 km/h (3 Bft)
09.07.2014 11:00 11,4 C 96 % 1008,7 hPa 0,6 l/m W 0,00 h 105 W/m 17,0 km/h (3 Bft)
09.07.2014 12:00 11,4 C 95 % 1008,9 hPa 0,2 l/m W 0,00 h 152 W/m 17,2 km/h (3 Bft)
09.07.2014 13:00 11,4 C 95 % 1009,1 hPa 0,6 l/m W-NW 0,00 h 135 W/m 14,5 km/h (3 Bft)
09.07.2014 14:00 11,4 C 95 % 1009,3 hPa 0,6 l/m W 0,00 h 133 W/m 15,7 km/h (3 Bft)
09.07.2014 15:00 11,3 C 95 % 1009,3 hPa 0,8 l/m W 0,00 h 133 W/m 16,2 km/h (3 Bft)
09.07.2014 16:00 11,2 C 94 % 1009,7 hPa 0,4 l/m W-NW 0,00 h 132 W/m 15,8 km/h (3 Bft)
09.07.2014 17:00 11,4 C 95 % 1009,3 hPa 0,4 l/m W-SW 0,00 h 142 W/m 17,0 km/h (3 Bft)
09.07.2014 18:00 11,3 C 94 % 1009,2 hPa 0,0 l/m W-SW 0,00 h 81 W/m 16,4 km/h (3 Bft)
09.07.2014 19:00 11,0 C 94 % 1009,1 hPa 0,0 l/m W-SW 0,00 h 40 W/m 17,7 km/h (3 Bft)
09.07.2014 20:00 10,6 C 95 % 1009,0 hPa 0,2 l/m SW 0,00 h 8 W/m 13,2 km/h (3 Bft)
09.07.2014 21:00 10,4 C 97 % 1009,0 hPa 0,8 l/m SW 0,00 h 0 W/m 11,8 km/h (2 Bft)
09.07.2014 22:00 10,4 C 97 % 1008,8 hPa 0,2 l/m W-SW 0,00 h 0 W/m 12,6 km/h (3 Bft)
09.07.2014 23:00 10,2 C 97 % 1008,5 hPa 0,0 l/m W-SW 0,00 h 0 W/m 17,3 km/h (3 Bft)
10.07.2014 00:00 9,8 C 97 % 1008,3 hPa 0,2 l/m W-SW 0,00 h 0 W/m 19,7 km/h (3 Bft)
10.07.2014 01:00 9,6 C 96 % 1007,9 hPa 0,0 l/m W-SW 0,00 h 0 W/m 18,6 km/h (3 Bft)
10.07.2014 02:00 9,6 C 96 % 1007,6 hPa 0,0 l/m W-SW 0,00 h 0 W/m 18,4 km/h (3 Bft)
10.07.2014 03:00 9,7 C 96 % 1007,5 hPa 0,0 l/m W-SW 0,00 h 0 W/m 17,6 km/h (3 Bft)
10.07.2014 04:00 9,6 C 97 % 1007,3 hPa 0,2 l/m SW 0,00 h 0 W/m 13,3 km/h (3 Bft)
10.07.2014 05:00 9,3 C 98 % 1007,3 hPa 0,2 l/m SW 0,00 h 0 W/m 11,0 km/h (2 Bft)
10.07.2014 06:00 9,3 C 98 % 1007,2 hPa 0,0 l/m SW 0,00 h 7 W/m 18,8 km/h (3 Bft)
10.07.2014 07:00 9,5 C 97 % 1007,3 hPa 0,0 l/m SW 0,00 h 26 W/m 16,4 km/h (3 Bft)
10.07.2014 08:00 9,8 C 97 % 1007,6 hPa 0,0 l/m SW 0,00 h 64 W/m 14,0 km/h (3 Bft)
10.07.2014 09:00 10,5 C 95 % 1007,8 hPa 0,0 l/m SW 0,00 h 87 W/m 16,6 km/h (3 Bft)
10.07.2014 10:00 10,8 C 94 % 1008,1 hPa 0,0 l/m SW 0,00 h 95 W/m 17,0 km/h (3 Bft)
10.07.2014 11:00 11,5 C 93 % 1008,4 hPa 0,0 l/m W 0,00 h 144 W/m 14,1 km/h (3 Bft)
10.07.2014 12:00 12,4 C 90 % 1008,6 hPa 0,0 l/m W-SW 0,00 h 190 W/m 15,6 km/h (3 Bft)
10.07.2014 13:00 12,8 C 90 % 1008,9 hPa 0,0 l/m W 0,00 h 124 W/m 12,2 km/h (2 Bft)
10.07.2014 14:00 13,2 C 90 % 1009,2 hPa 0,0 l/m W-SW 0,00 h 163 W/m 12,6 km/h (3 Bft)
10.07.2014 15:00 13,7 C 89 % 1009,6 hPa 0,0 l/m W-SW 0,00 h 240 W/m 14,1 km/h (3 Bft)
10.07.2014 16:00 13,6 C 90 % 1009,9 hPa 0,0 l/m W-SW 0,00 h 87 W/m 13,0 km/h (3 Bft)
10.07.2014 17:00 12,9 C 94 % 1009,9 hPa 1,4 l/m W-SW 0,00 h 56 W/m 11,5 km/h (2 Bft)
10.07.2014 18:00 12,8 C 97 % 1009,9 hPa 0,4 l/m SW 0,00 h 52 W/m 10,6 km/h (2 Bft)
10.07.2014 19:00 12,7 C 97 % 1010,3 hPa 0,0 l/m W-SW 0,00 h 20 W/m 12,1 km/h (2 Bft)
10.07.2014 20:00 12,5 C 98 % 1010,5 hPa 0,2 l/m W-SW 0,00 h 12 W/m 12,9 km/h (3 Bft)
10.07.2014 21:00 12,4 C 98 % 1010,4 hPa 0,0 l/m W-SW 0,00 h 5 W/m 14,8 km/h (3 Bft)
10.07.2014 22:00 12,4 C 98 % 1010,7 hPa 0,0 l/m SW 0,00 h 0 W/m 13,0 km/h (3 Bft)
10.07.2014 23:00 12,5 C 98 % 1010,3 hPa 0,0 l/m W-SW 0,00 h 0 W/m 15,0 km/h (3 Bft)
11.07.2014 00:00 12,6 C 98 % 1009,8 hPa 0,0 l/m SW 0,00 h 0 W/m 10,9 km/h (2 Bft)
11.07.2014 01:00 12,8 C 98 % 1009,6 hPa 0,0 l/m W-SW 0,00 h 0 W/m 9,1 km/h (2 Bft)
11.07.2014 02:00 13,1 C 98 % 1009,5 hPa 0,2 l/m W-SW 0,00 h 0 W/m 7,4 km/h (2 Bft)
11.07.2014 03:00 13,2 C 97 % 1009,5 hPa 0,0 l/m W 0,00 h 0 W/m 8,0 km/h (2 Bft)
11.07.2014 04:00 13,5 C 97 % 1009,6 hPa 0,0 l/m W-NW 0,00 h 0 W/m 11,3 km/h (2 Bft)
11.07.2014 05:00 13,7 C 97 % 1009,8 hPa 0,0 l/m W-NW 0,00 h 6 W/m 9,3 km/h (2 Bft)
11.07.2014 06:00 13,9 C 97 % 1010,0 hPa 0,0 l/m W-NW 0,00 h 20 W/m 11,3 km/h (2 Bft)
11.07.2014 07:00 14,4 C 97 % 1010,0 hPa 0,0 l/m W-NW 0,00 h 66 W/m 7,5 km/h (2 Bft)
11.07.2014 08:00 15,4 C 95 % 1010,4 hPa 0,0 l/m N-NW 0,17 h 175 W/m 12,0 km/h (2 Bft)
11.07.2014 09:00 16,5 C 90 % 1010,8 hPa 0,0 l/m N-NO 0,17 h 252 W/m 11,2 km/h (2 Bft)
11.07.2014 10:00 16,9 C 87 % 1010,9 hPa 0,0 l/m N-NW 0,08 h 220 W/m 11,3 km/h (2 Bft)
11.07.2014 11:00 17,8 C 82 % 1010,7 hPa 0,0 l/m N 0,00 h 264 W/m 10,2 km/h (2 Bft)
11.07.2014 12:00 19,0 C 73 % 1010,5 hPa 0,0 l/m N-NO 0,25 h 376 W/m 14,9 km/h (3 Bft)
11.07.2014 13:00 20,2 C 66 % 1010,5 hPa 0,0 l/m N 0,50 h 644 W/m 14,2 km/h (3 Bft)
11.07.2014 14:00 21,3 C 60 % 1010,4 hPa 0,0 l/m N-NO 0,67 h 776 W/m 14,5 km/h (3 Bft)
11.07.2014 15:00 21,6 C 59 % 1010,2 hPa 0,0 l/m N-NO 0,75 h 642 W/m 13,4 km/h (3 Bft)
11.07.2014 16:00 22,3 C 57 % 1009,9 hPa 0,0 l/m N 0,83 h 666 W/m 11,8 km/h (2 Bft)
11.07.2014 17:00 21,3 C 60 % 1009,7 hPa 0,0 l/m NO 0,17 h 178 W/m 9,9 km/h (2 Bft)
11.07.2014 18:00 21,6 C 57 % 1009,9 hPa 0,0 l/m N-NO 0,33 h 217 W/m 7,4 km/h (2 Bft)
11.07.2014 19:00 21,0 C 59 % 1009,9 hPa 0,0 l/m O-NO 0,50 h 161 W/m 7,3 km/h (2 Bft)
11.07.2014 20:00 17,9 C 84 % 1010,3 hPa 0,0 l/m S-SW 0,25 h 38 W/m 12,0 km/h (2 Bft)
11.07.2014 21:00 16,3 C 91 % 1010,8 hPa 0,0 l/m S-SW 0,00 h 6 W/m 5,1 km/h (1 Bft)
11.07.2014 22:00 15,3 C 94 % 1011,3 hPa 0,0 l/m S-SW 0,00 h 0 W/m 1,3 km/h (1 Bft)
11.07.2014 23:00 15,0 C 96 % 1011,2 hPa 0,0 l/m S-SW 0,00 h 0 W/m 7,2 km/h (2 Bft)
12.07.2014 00:00 15,0 C 96 % 1011,0 hPa 0,0 l/m SW 0,00 h 0 W/m 3,1 km/h (1 Bft)
12.07.2014 01:00 14,9 C 97 % 1011,0 hPa 0,0 l/m SW 0,00 h 0 W/m 7,1 km/h (2 Bft)
12.07.2014 02:00 15,1 C 98 % 1011,1 hPa 0,0 l/m S 0,00 h 0 W/m 3,6 km/h (1 Bft)
12.07.2014 03:00 15,0 C 98 % 1010,6 hPa 0,2 l/m S-SW 0,00 h 0 W/m 5,6 km/h (1 Bft)
12.07.2014 04:00 15,0 C 97 % 1010,5 hPa 0,0 l/m S-SW 0,00 h 0 W/m 5,5 km/h (1 Bft)
12.07.2014 05:00 14,9 C 96 % 1010,5 hPa 0,0 l/m W-SW 0,00 h 0 W/m 3,3 km/h (1 Bft)
12.07.2014 06:00 14,5 C 96 % 1010,6 hPa 0,0 l/m SW 0,00 h 21 W/m 8,0 km/h (2 Bft)
12.07.2014 07:00 14,9 C 96 % 1010,6 hPa 0,0 l/m SW 0,00 h 67 W/m 8,8 km/h (2 Bft)
12.07.2014 08:00 15,4 C 94 % 1010,9 hPa 0,0 l/m SW 0,00 h 116 W/m 9,9 km/h (2 Bft)
12.07.2014 09:00 16,2 C 90 % 1011,0 hPa 0,0 l/m SW 0,00 h 100 W/m 10,7 km/h (2 Bft)
12.07.2014 10:00 16,1 C 91 % 1011,1 hPa 0,0 l/m W 0,00 h 125 W/m 12,3 km/h (3 Bft)
12.07.2014 11:00 16,4 C 90 % 1010,9 hPa 0,0 l/m W-SW 0,00 h 168 W/m 12,5 km/h (3 Bft)
12.07.2014 12:00 16,9 C 89 % 1010,8 hPa 0,0 l/m W-SW 0,00 h 141 W/m 11,3 km/h (2 Bft)
12.07.2014 13:00 18,0 C 86 % 1010,4 hPa 0,0 l/m SW 0,00 h 308 W/m 13,6 km/h (3 Bft)
12.07.2014 14:00 19,0 C 82 % 1010,1 hPa 0,0 l/m SW 0,00 h 248 W/m 11,0 km/h (2 Bft)
12.07.2014 15:00 19,4 C 78 % 1009,9 hPa 0,8 l/m SW 0,08 h 234 W/m 6,8 km/h (2 Bft)
12.07.2014 16:00 15,9 C 93 % 1010,1 hPa 7,6 l/m W-NW 0,00 h 109 W/m 6,8 km/h (2 Bft)
12.07.2014 17:00 17,3 C 95 % 1009,5 hPa 0,0 l/m W-NW 0,50 h 366 W/m 3,1 km/h (1 Bft)
12.07.2014 18:00 18,7 C 85 % 1009,5 hPa 0,0 l/m W-NW 0,42 h 229 W/m 4,1 km/h (1 Bft)
12.07.2014 19:00 18,1 C 87 % 1009,9 hPa 0,0 l/m W-NW 0,17 h 131 W/m 3,5 km/h (1 Bft)
12.07.2014 20:00 16,9 C 92 % 1010,3 hPa 0,0 l/m N 0,00 h 24 W/m 1,6 km/h (1 Bft)
12.07.2014 21:00 15,4 C 96 % 1010,5 hPa 0,0 l/m N 0,00 h 6 W/m 0,5 km/h (0 Bft)
12.07.2014 22:00 14,4 C 97 % 1011,1 hPa 0,0 l/m N 0,00 h 0 W/m 0,7 km/h (0 Bft)
12.07.2014 23:00 14,3 C 98 % 1011,1 hPa 0,0 l/m N 0,00 h 0 W/m 0,0 km/h (0 Bft)
13.07.2014 00:00 14,5 C 98 % 1011,0 hPa 4,0 l/m W-NW 0,00 h 0 W/m 1,6 km/h (1 Bft)
13.07.2014 01:00 14,4 C 99 % 1011,0 hPa 0,0 l/m N 0,00 h 0 W/m 2,1 km/h (1 Bft)
13.07.2014 02:00 14,5 C 99 % 1011,1 hPa 2,4 l/m W-NW 0,00 h 0 W/m 4,5 km/h (1 Bft)
13.07.2014 03:00 14,3 C 99 % 1011,1 hPa 0,0 l/m W-NW 0,00 h 0 W/m 4,1 km/h (1 Bft)
13.07.2014 04:00 14,1 C 99 % 1010,9 hPa 0,0 l/m W 0,00 h 0 W/m 6,8 km/h (2 Bft)
13.07.2014 05:00 13,7 C 99 % 1011,0 hPa 0,0 l/m W 0,00 h 7 W/m 6,8 km/h (2 Bft)
13.07.2014 06:00 13,9 C 99 % 1010,9 hPa 0,0 l/m W 0,00 h 21 W/m 5,9 km/h (2 Bft)
13.07.2014 07:00 14,5 C 99 % 1010,8 hPa 0,0 l/m W-SW 0,00 h 82 W/m 7,8 km/h (2 Bft)
13.07.2014 08:00 15,2 C 98 % 1010,9 hPa 0,0 l/m W-SW 0,00 h 127 W/m 9,1 km/h (2 Bft)
13.07.2014 09:00 16,0 C 95 % 1010,7 hPa 0,0 l/m SW 0,00 h 178 W/m 12,4 km/h (3 Bft)
13.07.2014 10:00 16,7 C 91 % 1010,5 hPa 0,0 l/m SW 0,08 h 256 W/m 14,6 km/h (3 Bft)
13.07.2014 11:00 16,8 C 91 % 1010,4 hPa 0,0 l/m S-SW 0,25 h 307 W/m 16,5 km/h (3 Bft)
13.07.2014 12:00 18,6 C 84 % 1010,1 hPa 0,0 l/m SW 0,75 h 540 W/m 20,1 km/h (4 Bft)
13.07.2014 13:00 18,8 C 80 % 1009,7 hPa 0,0 l/m W-SW 0,17 h 379 W/m 20,1 km/h (4 Bft)
13.07.2014 14:00 19,9 C 74 % 1009,4 hPa 0,0 l/m SW 0,42 h 490 W/m 19,6 km/h (3 Bft)
13.07.2014 15:00 20,8 C 69 % 1009,1 hPa 0,0 l/m W-SW 0,58 h 585 W/m 22,8 km/h (4 Bft)
13.07.2014 16:00 21,1 C 68 % 1008,7 hPa 0,0 l/m SW 0,50 h 503 W/m 21,4 km/h (4 Bft)
13.07.2014 17:00 21,4 C 61 % 1008,4 hPa 0,0 l/m W-SW 1,00 h 535 W/m 24,7 km/h (4 Bft)
13.07.2014 18:00 20,7 C 66 % 1008,2 hPa 0,0 l/m W-SW 1,00 h 376 W/m 20,0 km/h (4 Bft)
13.07.2014 19:00 19,8 C 71 % 1008,1 hPa 0,0 l/m W-SW 0,58 h 143 W/m 18,1 km/h (3 Bft)
13.07.2014 20:00 18,7 C 75 % 1008,4 hPa 0,0 l/m W-SW 0,17 h 39 W/m 14,9 km/h (3 Bft)
13.07.2014 21:00 17,5 C 82 % 1008,9 hPa 0,0 l/m W-SW 0,00 h 6 W/m 9,1 km/h (2 Bft)
13.07.2014 22:00 16,8 C 86 % 1009,2 hPa 0,0 l/m W-SW 0,00 h 0 W/m 11,3 km/h (2 Bft)
13.07.2014 23:00 16,3 C 88 % 1009,4 hPa 0,0 l/m W-SW 0,00 h 0 W/m 11,3 km/h (2 Bft)
Min-Datum _ 10.07.14 11.07.14 08.07.14 - - - - 07.07.14
_ Min-Zeit 05:10 18:25 05:10 - - - - 00:15
Minimum _ 9,3 C 53 % 1006,1 hPa - - - - 0,0 km/h (0 Bft)
Max-Datum _ 07.07.14 08.07.14 07.07.14 07.07.14 - 07.07.14 11.07.14 09.07.14
_ Max-Zeit 15:00 05:45 08:30 23:10 - 09:20 13:25 11:35
Maximum _ 23,9 C 99 % 1013,4 hPa 10,2 l/m - 0,08 h 1162 W/m 32,2 km/h
W (5 Bft)
Durchschnitt _ 15,1 C 90 % 1009,6 hPa #57,2 l/m W-SW #15:15 h 176 W/m 11,5 km/h (2 Bft)